Time;durP1;ratioP1;P1;durP2;ratioP2;P2;SDS_P1;SDS_P2;PMS_P1;PMS_P2;Temp;Humidity;BMP_temperature;BMP_pressure;BME280_temperature;BME280_humidity;BME280_pressure;Samples;Min_cycle;Max_cycle;Signal;HPM_P1;HPM_P2
2023/02/11 00:00:13;;;;;;;29.52;18.20;;;22.90;37.00;;;;;;6108388;28;83745;-66
2023/02/11 00:03:14;;;;;;;28.73;17.83;;;22.90;36.80;;;;;;6104098;28;83244;-65
2023/02/11 00:06:15;;;;;;;28.90;18.00;;;22.80;36.80;;;;;;6104379;28;83122;-67
2023/02/11 00:09:15;;;;;;;27.92;18.15;;;22.90;36.70;;;;;;6137488;28;82967;-67
2023/02/11 00:12:18;;;;;;;27.95;17.88;;;22.90;36.70;;;;;;6136974;28;83041;-67
2023/02/11 00:15:20;;;;;;;29.35;18.73;;;22.80;36.40;;;;;;6120539;28;83601;-66
2023/02/11 00:18:20;;;;;;;28.70;17.45;;;22.80;36.50;;;;;;6127861;28;84084;-67
2023/02/11 00:21:21;;;;;;;26.67;17.23;;;22.80;36.40;;;;;;6131344;28;83593;-63
2023/02/11 00:24:21;;;;;;;30.52;18.70;;;22.80;36.50;;;;;;6124980;28;83547;-64
2023/02/11 00:27:22;;;;;;;24.98;16.52;;;22.80;36.40;;;;;;6124650;28;83001;-63
2023/02/11 00:30:22;;;;;;;26.95;17.08;;;22.80;36.60;;;;;;6116928;28;85752;-63
2023/02/11 00:33:23;;;;;;;27.75;17.10;;;22.80;36.60;;;;;;6149814;28;85636;-62
2023/02/11 00:36:23;;;;;;;25.75;16.60;;;22.80;36.60;;;;;;6127697;28;83987;-61
2023/02/11 00:39:24;;;;;;;25.80;16.77;;;22.70;36.50;;;;;;6108892;28;84091;-62
2023/02/11 00:42:24;;;;;;;28.40;16.85;;;22.70;36.60;;;;;;6126140;28;85648;-61
2023/02/11 00:45:25;;;;;;;27.40;16.33;;;22.70;36.30;;;;;;6126298;28;84338;-62
2023/02/11 00:48:25;;;;;;;25.13;15.85;;;22.70;36.30;;;;;;6150400;28;83722;-61
2023/02/11 00:51:26;;;;;;;24.25;15.82;;;22.70;36.30;;;;;;6127490;28;85259;-61
2023/02/11 00:54:27;;;;;;;23.13;15.27;;;22.70;36.30;;;;;;6133864;28;83313;-61
2023/02/11 00:57:27;;;;;;;23.02;14.68;;;22.70;36.30;;;;;;6129489;28;84676;-61
2023/02/11 01:00:28;;;;;;;25.10;15.32;;;22.70;36.30;;;;;;6130059;28;83294;-61
2023/02/11 01:03:28;;;;;;;23.95;15.10;;;22.70;36.70;;;;;;6134208;28;83732;-61
2023/02/11 01:06:29;;;;;;;23.85;15.15;;;22.70;36.10;;;;;;6123734;28;86524;-60
2023/02/11 01:09:29;;;;;;;24.38;14.52;;;22.70;36.00;;;;;;6136502;28;82806;-59
2023/02/11 01:12:30;;;;;;;23.17;14.75;;;22.70;36.10;;;;;;6136059;28;83175;-60
2023/02/11 01:15:31;;;;;;;22.83;14.23;;;22.70;36.20;;;;;;6136271;28;84233;-60
2023/02/11 01:18:32;;;;;;;21.50;13.40;;;22.70;36.10;;;;;;6138137;28;85591;-60
2023/02/11 01:21:33;;;;;;;21.92;14.02;;;22.70;36.00;;;;;;6116788;28;83025;-61
2023/02/11 01:24:33;;;;;;;22.52;13.75;;;22.70;36.10;;;;;;6106438;28;84259;-60
2023/02/11 01:27:34;;;;;;;23.38;14.68;;;22.70;36.10;;;;;;6123421;28;84015;-60
2023/02/11 01:30:34;;;;;;;19.33;12.45;;;22.70;36.10;;;;;;6127792;28;83351;-60
2023/02/11 01:33:37;;;;;;;18.63;12.90;;;22.70;36.20;;;;;;6124999;28;83476;-61
2023/02/11 01:36:39;;;;;;;18.50;12.82;;;22.70;36.30;;;;;;6123787;28;85845;-62
2023/02/11 01:39:40;;;;;;;18.95;12.50;;;22.60;36.40;;;;;;6109798;28;85913;-60
2023/02/11 01:42:40;;;;;;;19.55;12.38;;;22.60;36.60;;;;;;6119314;28;86054;-59
2023/02/11 01:45:41;;;;;;;20.60;13.23;;;22.60;36.70;;;;;;6112583;28;84994;-60
2023/02/11 01:48:42;;;;;;;20.50;13.23;;;22.60;36.60;;;;;;6099876;28;83917;-60
2023/02/11 01:51:42;;;;;;;18.70;11.60;;;22.60;36.60;;;;;;6124897;28;82982;-61
2023/02/11 01:58:03;;;;;;;19.27;11.55;;;22.60;36.50;;;;;;6134786;28;84435;-62
2023/02/11 02:01:03;;;;;;;17.77;11.48;;;22.60;36.70;;;;;;6124904;28;85727;-62
2023/02/11 02:04:04;;;;;;;19.70;11.75;;;22.60;36.70;;;;;;6142034;28;86145;-61
2023/02/11 02:07:04;;;;;;;18.45;11.52;;;22.60;36.60;;;;;;6127083;28;85189;-60
2023/02/11 02:10:05;;;;;;;17.65;11.68;;;22.60;36.40;;;;;;6121948;28;86400;-60
2023/02/11 02:13:06;;;;;;;17.42;11.60;;;22.60;36.50;;;;;;6135309;28;84760;-59
2023/02/11 02:16:06;;;;;;;25.55;11.88;;;22.60;36.50;;;;;;6135501;28;83889;-60
2023/02/11 02:19:07;;;;;;;17.80;11.43;;;22.60;36.60;;;;;;6123889;28;82732;-60
2023/02/11 02:22:09;;;;;;;17.73;11.57;;;22.60;36.40;;;;;;6124166;28;84162;-59
2023/02/11 02:25:09;;;;;;;15.85;10.32;;;22.50;36.30;;;;;;6113953;28;83177;-62
2023/02/11 02:28:11;;;;;;;17.50;11.07;;;22.50;36.20;;;;;;6108886;28;84610;-60
2023/02/11 02:31:11;;;;;;;19.48;11.50;;;22.50;36.20;;;;;;6116884;28;83321;-60
2023/02/11 02:34:13;;;;;;;18.35;11.77;;;22.60;36.10;;;;;;6123670;28;83399;-60
2023/02/11 02:37:13;;;;;;;15.90;10.32;;;22.60;36.00;;;;;;6109734;28;88672;-60
2023/02/11 02:40:14;;;;;;;14.77;10.30;;;22.60;36.30;;;;;;6110921;28;83850;-60
2023/02/11 02:43:14;;;;;;;16.38;11.07;;;22.60;35.50;;;;;;6124794;28;83558;-60
2023/02/11 02:46:15;;;;;;;18.15;11.43;;;22.70;35.20;;;;;;6130042;28;83320;-61
2023/02/11 02:49:15;;;;;;;16.02;10.65;;;22.80;35.00;;;;;;6132508;28;82767;-59
2023/02/11 02:52:16;;;;;;;16.33;10.73;;;22.80;34.90;;;;;;6143444;28;83116;-60
2023/02/11 02:55:16;;;;;;;15.65;10.48;;;22.80;34.90;;;;;;6136974;28;82847;-59
2023/02/11 02:58:17;;;;;;;14.05;10.23;;;22.90;34.90;;;;;;6127657;28;83991;-60
2023/02/11 03:01:17;;;;;;;15.70;10.30;;;22.90;35.10;;;;;;6128527;28;82689;-60
2023/02/11 03:04:18;;;;;;;17.63;11.00;;;23.00;35.20;;;;;;6125819;28;83169;-60
2023/02/11 03:07:18;;;;;;;14.55;9.75;;;23.00;35.40;;;;;;6126845;28;82950;-60
2023/02/11 03:10:19;;;;;;;14.32;9.40;;;23.00;35.30;;;;;;6134329;28;82668;-60
2023/02/11 03:13:19;;;;;;;15.85;10.02;;;23.10;35.50;;;;;;6126178;28;80320;-61
2023/02/11 03:16:20;;;;;;;14.70;10.02;;;23.10;35.50;;;;;;6111894;28;82823;-61
2023/02/11 03:19:20;;;;;;;15.57;9.75;;;23.10;35.70;;;;;;6104867;28;83486;-59
2023/02/11 03:22:21;;;;;;;14.65;9.45;;;23.10;35.70;;;;;;6118305;28;82936;-59
2023/02/11 03:25:21;;;;;;;12.55;8.98;;;23.10;35.60;;;;;;6130552;28;80576;-59
2023/02/11 03:28:22;;;;;;;14.80;9.32;;;23.20;35.50;;;;;;6138981;28;80686;-60
2023/02/11 03:31:22;;;;;;;15.68;10.15;;;23.20;35.40;;;;;;6143455;28;80662;-61
2023/02/11 03:34:23;;;;;;;15.73;9.98;;;23.20;35.00;;;;;;6127963;28;83207;-61
2023/02/11 03:37:23;;;;;;;14.40;9.85;;;23.20;34.80;;;;;;6123014;28;83400;-68
2023/02/11 03:40:24;;;;;;;11.75;8.80;;;23.20;34.60;;;;;;6113792;28;83878;-69
2023/02/11 03:43:24;;;;;;;16.00;9.93;;;23.20;34.40;;;;;;6107713;28;81980;-69
2023/02/11 03:46:25;;;;;;;13.23;8.65;;;23.20;34.30;;;;;;6109236;28;80270;-69
2023/02/11 03:49:25;;;;;;;14.13;9.10;;;23.20;34.10;;;;;;6108519;28;81539;-68
2023/02/11 03:52:26;;;;;;;14.27;9.23;;;23.20;34.10;;;;;;6121028;28;80334;-67
2023/02/11 03:55:27;;;;;;;13.02;8.27;;;23.20;34.00;;;;;;6123032;28;80216;-70
2023/02/11 03:58:27;;;;;;;13.57;9.00;;;23.30;33.90;;;;;;6155087;28;80378;-68
2023/02/11 04:01:28;;;;;;;13.85;9.13;;;23.30;34.30;;;;;;6122772;28;80739;-67
2023/02/11 04:04:28;;;;;;;14.02;8.32;;;23.30;34.20;;;;;;6123635;28;81865;-66
2023/02/11 04:07:29;;;;;;;14.20;8.38;;;23.30;34.20;;;;;;6130463;28;80624;-66
2023/02/11 04:10:29;;;;;;;12.60;8.25;;;23.30;34.20;;;;;;6120965;28;80473;-66
2023/02/11 04:13:30;;;;;;;13.10;9.35;;;23.30;34.30;;;;;;6113953;28;80786;-66
2023/02/11 04:16:30;;;;;;;12.70;7.95;;;23.30;34.30;;;;;;6111806;28;80892;-59
2023/02/11 04:19:31;;;;;;;11.60;8.32;;;23.30;34.40;;;;;;6106266;28;81460;-65
2023/02/11 04:22:32;;;;;;;11.45;7.43;;;23.30;34.40;;;;;;6113611;28;82119;-65
2023/02/11 04:25:32;;;;;;;10.02;6.97;;;23.30;34.90;;;;;;6105988;28;81365;-65
2023/02/11 04:28:33;;;;;;;10.25;7.07;;;23.40;35.50;;;;;;6109733;28;80370;-65
2023/02/11 04:31:34;;;;;;;10.70;7.38;;;23.40;35.90;;;;;;6142742;28;82575;-65
2023/02/11 04:34:34;;;;;;;9.45;6.93;;;23.30;36.10;;;;;;6141987;28;81742;-65
2023/02/11 04:37:35;;;;;;;9.13;6.43;;;23.40;36.60;;;;;;6132280;28;80633;-66
2023/02/11 04:40:35;;;;;;;8.85;6.18;;;23.40;36.70;;;;;;6115597;28;81005;-66
2023/02/11 04:43:36;;;;;;;9.15;6.47;;;23.40;37.00;;;;;;6108979;28;83014;-66
2023/02/11 04:46:36;;;;;;;10.07;6.32;;;23.40;36.90;;;;;;6117961;28;81191;-66
2023/02/11 04:49:37;;;;;;;7.78;6.00;;;23.40;37.00;;;;;;6105752;28;80242;-65
2023/02/11 04:52:37;;;;;;;8.68;6.45;;;23.40;37.00;;;;;;6121168;28;80383;-66
2023/02/11 04:55:38;;;;;;;8.35;5.75;;;23.40;37.00;;;;;;6115030;28;80965;-64
2023/02/11 04:58:39;;;;;;;8.85;6.18;;;23.40;37.10;;;;;;6117632;28;80326;-65
2023/02/11 05:01:39;;;;;;;7.97;5.60;;;23.40;37.20;;;;;;6106569;28;81014;-65
2023/02/11 05:04:40;;;;;;;8.27;6.40;;;23.50;37.30;;;;;;6150287;28;80560;-64
2023/02/11 05:07:40;;;;;;;8.07;5.28;;;23.50;37.20;;;;;;6139556;28;80197;-61
2023/02/11 05:10:41;;;;;;;8.43;5.35;;;23.50;37.30;;;;;;6118076;28;80815;-61
2023/02/11 05:13:41;;;;;;;6.88;5.00;;;23.50;37.50;;;;;;6105888;28;80566;-62
2023/02/11 05:16:42;;;;;;;8.23;6.00;;;23.50;37.90;;;;;;6118061;28;80667;-61
2023/02/11 05:19:42;;;;;;;8.82;5.70;;;23.50;37.80;;;;;;6117857;28;81463;-60
2023/02/11 05:22:43;;;;;;;7.45;5.47;;;23.50;37.70;;;;;;6126264;28;80801;-60
2023/02/11 05:25:43;;;;;;;7.20;5.57;;;23.50;37.80;;;;;;6114870;28;80408;-62
2023/02/11 05:28:44;;;;;;;12.00;6.07;;;23.50;38.00;;;;;;6116994;28;81576;-61
2023/02/11 05:31:44;;;;;;;7.78;6.00;;;23.50;38.10;;;;;;6136579;28;81326;-61
2023/02/11 05:34:45;;;;;;;8.27;5.55;;;23.50;37.90;;;;;;6116437;28;80960;-61
2023/02/11 05:37:45;;;;;;;9.35;6.28;;;23.50;38.00;;;;;;6118065;28;80387;-61
2023/02/11 05:40:46;;;;;;;8.63;6.10;;;23.50;37.70;;;;;;6141483;28;80446;-61
2023/02/11 05:43:46;;;;;;;12.35;6.38;;;23.50;37.80;;;;;;6128278;28;81479;-61
2023/02/11 05:46:48;;;;;;;8.25;5.68;;;23.50;37.90;;;;;;6118361;28;80822;-61
2023/02/11 05:49:48;;;;;;;11.68;6.43;;;23.50;38.00;;;;;;6121480;28;80469;-64
2023/02/11 05:52:49;;;;;;;10.40;6.85;;;23.50;37.60;;;;;;6096957;28;83565;-64
2023/02/11 05:55:49;;;;;;;9.75;6.43;;;23.50;37.60;;;;;;6114243;28;80572;-67
2023/02/11 05:58:50;;;;;;;9.43;6.38;;;23.50;37.80;;;;;;6103315;28;80597;-65
2023/02/11 06:01:50;;;;;;;10.52;6.78;;;23.40;37.50;;;;;;6122703;28;80332;-63
2023/02/11 06:04:51;;;;;;;11.57;6.78;;;23.40;37.50;;;;;;6138867;28;80477;-62
2023/02/11 06:07:52;;;;;;;9.63;6.47;;;23.40;37.30;;;;;;6123261;28;80510;-67
2023/02/11 06:10:52;;;;;;;10.57;6.97;;;23.40;37.10;;;;;;6129225;28;81535;-65
2023/02/11 06:13:53;;;;;;;8.93;6.63;;;23.40;36.60;;;;;;6150075;28;80276;-68
2023/02/11 06:16:53;;;;;;;13.88;8.13;;;23.40;36.60;;;;;;6130079;28;81113;-64
2023/02/11 06:19:54;;;;;;;11.43;7.28;;;23.40;36.20;;;;;;6133971;28;81207;-65
2023/02/11 06:22:54;;;;;;;10.38;7.22;;;23.40;35.80;;;;;;6133013;28;81457;-66
2023/02/11 06:25:55;;;;;;;11.02;7.78;;;23.50;35.30;;;;;;6118808;28;81799;-66
2023/02/11 06:28:55;;;;;;;12.73;7.70;;;23.50;35.20;;;;;;6113269;28;80621;-64
2023/02/11 06:31:56;;;;;;;10.20;7.78;;;23.50;35.00;;;;;;6120022;28;80575;-64
2023/02/11 06:34:56;;;;;;;14.43;8.48;;;23.50;34.70;;;;;;6107382;28;82996;-64
2023/02/11 06:37:57;;;;;;;14.25;8.80;;;23.50;34.50;;;;;;6102781;28;82044;-63
2023/02/11 06:40:57;;;;;;;15.63;8.75;;;23.50;34.50;;;;;;6112408;28;86196;-64
2023/02/11 06:43:58;;;;;;;10.40;7.40;;;23.60;35.90;;;;;;6111135;28;81234;-65
2023/02/11 06:46:58;;;;;;;11.63;8.15;;;23.60;36.20;;;;;;6129639;28;81134;-64
2023/02/11 06:49:59;;;;;;;13.35;7.88;;;23.60;36.70;;;;;;6118003;28;80880;-65
2023/02/11 06:52:59;;;;;;;10.50;6.80;;;23.60;36.90;;;;;;6107192;28;82693;-68
2023/02/11 06:56:00;;;;;;;11.82;7.18;;;23.70;36.70;;;;;;6105088;28;81777;-69
2023/02/11 06:59:00;;;;;;;13.65;7.80;;;23.60;36.50;;;;;;6109456;28;80586;-67
2023/02/11 07:02:01;;;;;;;11.43;7.30;;;23.60;36.30;;;;;;6110901;28;80203;-66
2023/02/11 07:05:01;;;;;;;11.18;7.20;;;23.60;35.80;;;;;;6095120;28;80608;-68
2023/02/11 07:08:02;;;;;;;10.07;7.05;;;23.70;35.90;;;;;;6096125;28;85598;-70
2023/02/11 07:11:02;;;;;;;11.30;6.78;;;23.70;35.90;;;;;;6109019;28;81008;-67
2023/02/11 07:14:03;;;;;;;10.38;7.00;;;23.70;35.90;;;;;;6109184;28;80558;-68
2023/02/11 07:17:03;;;;;;;12.10;7.32;;;23.70;36.70;;;;;;6115108;28;80632;-66
2023/02/11 07:20:04;;;;;;;8.75;6.78;;;23.70;37.30;;;;;;6103389;28;80810;-74
2023/02/11 07:23:04;;;;;;;9.13;6.90;;;23.80;37.10;;;;;;6097632;28;81095;-70
2023/02/11 07:26:05;;;;;;;11.50;7.03;;;23.80;37.10;;;;;;6097582;28;81677;-69
2023/02/11 07:29:05;;;;;;;9.75;6.50;;;23.80;37.30;;;;;;6099666;28;81201;-67
2023/02/11 07:32:06;;;;;;;10.93;7.40;;;23.80;37.50;;;;;;6103933;28;81368;-67
2023/02/11 07:35:07;;;;;;;8.40;6.50;;;23.80;37.40;;;;;;6095756;28;80973;-66
2023/02/11 07:38:07;;;;;;;8.60;6.55;;;23.80;37.10;;;;;;6095182;28;83069;-68
2023/02/11 07:41:08;;;;;;;10.73;7.53;;;23.80;37.00;;;;;;6092397;28;81265;-69
2023/02/11 07:44:09;;;;;;;11.48;7.13;;;23.80;37.00;;;;;;6097652;28;82870;-67
2023/02/11 07:47:09;;;;;;;10.68;6.85;;;23.80;37.00;;;;;;6093156;28;81575;-68
2023/02/11 07:50:10;;;;;;;8.60;6.47;;;23.90;36.90;;;;;;6093047;28;81379;-65
2023/02/11 07:53:10;;;;;;;8.82;6.50;;;23.90;37.20;;;;;;6105609;28;86811;-66
2023/02/11 07:56:11;;;;;;;11.07;7.53;;;23.90;36.90;;;;;;6103511;28;81343;-62
2023/02/11 07:59:11;;;;;;;12.30;7.32;;;23.90;36.50;;;;;;6107758;28;80680;-66
2023/02/11 08:02:12;;;;;;;10.25;6.78;;;23.90;36.30;;;;;;6099869;28;81810;-71
2023/02/11 08:05:12;;;;;;;12.63;7.18;;;24.00;36.50;;;;;;6108160;28;82997;-69
2023/02/11 08:08:13;;;;;;;10.23;6.78;;;24.00;36.80;;;;;;6096877;28;81221;-64
2023/02/11 08:11:13;;;;;;;10.18;6.78;;;24.00;37.00;;;;;;6105556;28;82023;-67
2023/02/11 08:14:14;;;;;;;9.77;7.03;;;24.10;36.90;;;;;;6124385;28;80686;-69
2023/02/11 08:17:14;;;;;;;8.90;6.55;;;24.20;36.70;;;;;;6110916;28;80421;-66
2023/02/11 08:20:15;;;;;;;13.85;7.43;;;24.20;36.50;;;;;;6116244;28;80526;-69
2023/02/11 08:23:16;;;;;;;11.63;6.97;;;24.30;36.60;;;;;;6119215;28;80799;-66
2023/02/11 08:26:16;;;;;;;11.20;7.38;;;24.30;36.50;;;;;;6112244;28;80577;-68
2023/02/11 08:29:17;;;;;;;10.10;7.18;;;24.40;36.40;;;;;;6126259;28;80500;-67
2023/02/11 08:32:18;;;;;;;13.77;8.00;;;24.40;36.30;;;;;;6116276;28;82302;-60
2023/02/11 08:35:18;;;;;;;12.13;8.43;;;24.40;36.10;;;;;;6113647;28;82381;-51
2023/02/11 08:38:18;;;;;;;12.05;7.90;;;24.50;36.70;;;;;;6117441;28;81740;-54
2023/02/11 08:41:19;;;;;;;61.88;34.22;;;24.50;36.00;;;;;;6125736;28;80625;-53
2023/02/11 08:44:20;;;;;;;105.72;53.78;;;24.50;35.90;;;;;;6113083;28;82840;-50
2023/02/11 08:47:20;;;;;;;129.95;66.72;;;24.60;35.60;;;;;;6120243;28;83638;-52
2023/02/11 08:50:21;;;;;;;177.82;86.00;;;24.60;35.00;;;;;;6117658;28;84125;-53
2023/02/11 08:53:21;;;;;;;210.38;99.78;;;24.60;34.50;;;;;;6122583;28;83401;-52
2023/02/11 08:56:24;;;;;;;135.60;66.35;;;24.70;34.20;;;;;;6115074;28;86185;-53
2023/02/11 08:59:25;;;;;;;97.32;50.17;;;24.60;33.10;;;;;;6116100;28;83341;-51
2023/02/11 09:02:25;;;;;;;80.10;40.85;;;24.40;31.50;;;;;;6119628;28;83379;-50
2023/02/11 09:05:26;;;;;;;63.95;35.42;;;24.10;31.00;;;;;;6117894;28;83172;-48
2023/02/11 09:08:27;;;;;;;56.30;28.17;;;23.90;30.50;;;;;;6119526;28;84825;-52
2023/02/11 09:11:27;;;;;;;42.17;25.77;;;23.80;30.00;;;;;;6134686;28;83708;-50
2023/02/11 09:14:28;;;;;;;36.50;22.27;;;23.80;30.00;;;;;;6146555;28;83522;-52
2023/02/11 09:17:28;;;;;;;41.83;21.55;;;23.80;29.60;;;;;;6116453;28;84150;-48
2023/02/11 09:20:29;;;;;;;40.80;21.65;;;23.80;29.70;;;;;;6122114;28;83597;-50
2023/02/11 09:23:29;;;;;;;30.75;18.38;;;23.80;29.70;;;;;;6119633;28;83477;-49
2023/02/11 09:26:30;;;;;;;28.75;18.10;;;23.70;29.30;;;;;;6119792;28;82926;-52
2023/02/11 09:29:31;;;;;;;23.90;16.67;;;23.70;29.70;;;;;;6116428;28;83738;-52
2023/02/11 09:32:31;;;;;;;25.70;15.95;;;23.70;29.40;;;;;;6138019;28;83627;-61
2023/02/11 09:35:32;;;;;;;23.25;15.52;;;23.50;28.90;;;;;;6128966;28;83400;-60
2023/02/11 09:38:32;;;;;;;21.90;14.35;;;23.20;29.20;;;;;;6123009;28;83095;-52
2023/02/11 09:41:33;;;;;;;21.50;14.27;;;23.00;29.30;;;;;;6123455;28;82880;-49
2023/02/11 09:44:33;;;;;;;21.85;13.73;;;22.80;29.30;;;;;;6129186;28;83007;-56
2023/02/11 09:47:34;;;;;;;23.50;14.05;;;22.70;29.40;;;;;;6127944;28;83047;-55
2023/02/11 09:50:34;;;;;;;28.58;14.85;;;22.50;29.80;;;;;;6118632;28;84947;-53
2023/02/11 09:53:35;;;;;;;20.75;13.23;;;22.50;29.90;;;;;;6120360;28;83139;-55
2023/02/11 09:56:35;;;;;;;28.38;16.15;;;22.30;30.00;;;;;;6123699;28;83422;-55
2023/02/11 09:59:36;;;;;;;20.40;13.32;;;22.20;30.20;;;;;;6131121;28;83174;-54
2023/02/11 10:02:38;;;;;;;23.13;13.40;;;22.20;30.20;;;;;;6130244;28;83637;-54
2023/02/11 10:05:39;;;;;;;22.35;13.05;;;22.20;30.70;;;;;;6128617;28;82939;-54
2023/02/11 10:08:39;;;;;;;21.58;13.77;;;22.10;30.60;;;;;;6129395;28;84292;-55
2023/02/11 10:11:40;;;;;;;20.92;13.23;;;22.10;30.70;;;;;;6129046;28;83191;-55
2023/02/11 10:14:40;;;;;;;20.88;13.15;;;22.10;30.80;;;;;;6128342;28;85342;-54
2023/02/11 10:17:41;;;;;;;21.23;12.63;;;22.10;31.20;;;;;;6126963;28;83907;-51
2023/02/11 10:20:41;;;;;;;20.48;12.30;;;22.00;31.20;;;;;;6129527;28;85155;-52
2023/02/11 10:23:42;;;;;;;20.63;13.02;;;22.10;30.90;;;;;;6127947;28;83204;-53
2023/02/11 10:26:43;;;;;;;20.67;11.70;;;22.00;31.20;;;;;;6127705;28;83459;-54
2023/02/11 10:29:43;;;;;;;21.58;13.40;;;22.00;31.40;;;;;;6122256;28;86890;-55
2023/02/11 10:32:44;;;;;;;20.10;12.63;;;21.90;32.20;;;;;;6141409;28;83110;-53
2023/02/11 10:35:44;;;;;;;18.10;12.13;;;21.80;33.40;;;;;;6130339;28;83645;-55
2023/02/11 10:38:45;;;;;;;19.67;11.95;;;21.80;33.60;;;;;;6134408;28;84573;-50
2023/02/11 10:41:46;;;;;;;20.00;11.05;;;22.00;34.40;;;;;;6128249;28;83073;-53
2023/02/11 10:44:46;;;;;;;19.35;10.73;;;22.20;33.90;;;;;;6133621;28;83538;-50
2023/02/11 10:47:47;;;;;;;20.40;10.77;;;22.30;34.30;;;;;;6132369;28;83143;-61
2023/02/11 10:50:47;;;;;;;26.08;13.35;;;22.40;34.50;;;;;;6114558;28;84877;-60
2023/02/11 10:53:48;;;;;;;31.83;18.20;;;22.50;34.50;;;;;;6103332;28;87366;-63
2023/02/11 10:56:52;;;;;;;42.67;26.02;;;22.60;34.80;;;;;;6108221;28;89449;-69
2023/02/11 10:59:52;;;;;;;52.13;26.48;;;22.70;34.70;;;;;;6122378;28;83811;-67
2023/02/11 11:02:53;;;;;;;52.38;28.38;;;22.90;34.70;;;;;;6109632;28;83899;-70
2023/02/11 11:05:53;;;;;;;50.55;29.90;;;23.00;34.70;;;;;;6110393;28;82861;-74
2023/02/11 11:08:54;;;;;;;47.20;29.42;;;23.10;34.60;;;;;;6108392;28;84163;-74
2023/02/11 11:11:54;;;;;;;45.42;27.85;;;23.10;34.90;;;;;;6116094;28;87221;-73
2023/02/11 11:14:55;;;;;;;49.42;27.00;;;23.30;35.60;;;;;;6116002;28;83412;-74
2023/02/11 11:17:55;;;;;;;44.28;24.25;;;23.40;35.70;;;;;;6106815;28;82812;-68
2023/02/11 11:20:56;;;;;;;34.95;22.55;;;23.50;35.10;;;;;;6118869;28;84895;-68
2023/02/11 11:23:57;;;;;;;31.23;20.50;;;23.50;34.00;;;;;;6116660;28;82953;-67
2023/02/11 11:26:58;;;;;;;36.55;17.92;;;23.30;33.20;;;;;;6110911;28;84020;-59
2023/02/11 11:30:01;;;;;;;24.55;17.13;;;23.30;32.70;;;;;;6106001;28;83784;-64
2023/02/11 11:33:01;;;;;;;26.90;16.73;;;23.40;32.30;;;;;;6105401;28;83911;-72
2023/02/11 11:36:02;;;;;;;30.27;15.23;;;23.40;32.30;;;;;;6119607;28;83139;-68
2023/02/11 11:39:03;;;;;;;38.63;20.08;;;23.40;32.40;;;;;;6130980;28;83608;-71
2023/02/11 11:42:06;;;;;;;80.55;40.15;;;23.50;32.00;;;;;;6135746;28;83405;-73
2023/02/11 11:45:07;;;;;;;133.48;65.68;;;23.50;32.20;;;;;;6153305;28;82808;-71
2023/02/11 11:48:07;;;;;;;173.48;86.53;;;23.50;31.90;;;;;;6137989;28;83322;-73
2023/02/11 11:51:08;;;;;;;225.57;103.13;;;23.60;32.00;;;;;;6142930;28;86213;-71
2023/02/11 11:54:08;;;;;;;313.13;137.93;;;23.60;31.70;;;;;;6123634;28;85965;-68
2023/02/11 11:57:09;;;;;;;257.73;117.25;;;23.60;31.80;;;;;;6124760;28;86903;-73
2023/02/11 12:00:09;;;;;;;177.90;86.50;;;23.50;31.60;;;;;;6136638;28;85276;-70
2023/02/11 12:03:10;;;;;;;156.77;72.75;;;23.50;31.90;;;;;;6142080;28;85395;-68
2023/02/11 12:06:10;;;;;;;124.97;58.55;;;23.40;31.90;;;;;;6134355;28;83820;-69
2023/02/11 12:09:11;;;;;;;109.35;51.17;;;23.30;31.90;;;;;;6134033;28;83812;-70
2023/02/11 12:12:12;;;;;;;84.75;42.10;;;23.20;32.00;;;;;;6129572;28;82960;-69
2023/02/11 12:15:12;;;;;;;84.45;38.85;;;23.20;32.00;;;;;;6104120;28;83621;-63
2023/02/11 12:18:13;;;;;;;66.28;32.08;;;23.10;32.20;;;;;;6108300;28;83493;-65
2023/02/11 12:21:13;;;;;;;62.25;30.95;;;23.00;32.40;;;;;;6108405;28;84107;-61
2023/02/11 12:24:14;;;;;;;54.47;28.05;;;23.00;32.40;;;;;;6119179;28;85396;-71
2023/02/11 12:27:14;;;;;;;56.33;26.80;;;23.00;32.30;;;;;;6119315;28;84690;-62
2023/02/11 12:30:15;;;;;;;54.67;26.15;;;23.10;32.70;;;;;;6109424;28;89211;-64
2023/02/11 12:33:15;;;;;;;48.38;25.65;;;23.10;33.10;;;;;;6113868;28;83771;-64
2023/02/11 12:36:18;;;;;;;53.05;23.42;;;23.10;33.10;;;;;;6111352;28;84742;-61
2023/02/11 12:39:19;;;;;;;38.55;19.58;;;23.10;33.00;;;;;;6112781;28;86355;-61
2023/02/11 12:45:38;;;;;;;31.63;17.30;;;23.20;33.10;;;;;;6117673;28;83161;-66
2023/02/11 12:48:39;;;;;;;32.95;17.58;;;23.30;33.00;;;;;;6115938;28;83285;-63
2023/02/11 12:51:40;;;;;;;33.70;16.00;;;23.30;32.70;;;;;;6139766;28;85774;-62
2023/02/11 12:54:40;;;;;;;31.13;15.57;;;23.30;32.70;;;;;;6121162;28;83075;-63
2023/02/11 12:57:41;;;;;;;31.20;15.52;;;23.30;32.60;;;;;;6116515;28;83010;-61
2023/02/11 13:00:41;;;;;;;27.27;14.82;;;23.30;32.50;;;;;;6119002;28;82944;-67
2023/02/11 13:03:42;;;;;;;27.55;14.45;;;23.30;32.50;;;;;;6111135;28;83182;-63
2023/02/11 13:06:42;;;;;;;26.60;13.35;;;23.30;32.40;;;;;;6115519;28;83659;-68
2023/02/11 13:09:43;;;;;;;23.48;13.65;;;23.30;33.10;;;;;;6115497;28;84775;-68
2023/02/11 13:16:09;;;;;;;21.10;13.25;;;23.30;32.70;;;;;;6114442;28;87498;-64
2023/02/11 13:19:09;;;;;;;20.35;11.82;;;23.30;32.70;;;;;;6109055;28;84537;-63
2023/02/11 13:22:10;;;;;;;22.77;11.95;;;23.20;32.70;;;;;;6124624;28;82963;-63
2023/02/11 13:25:10;;;;;;;21.10;11.82;;;23.20;32.90;;;;;;6132641;28;84391;-63
2023/02/11 13:28:11;;;;;;;17.77;11.88;;;23.20;33.10;;;;;;6112105;28;82979;-64
2023/02/11 13:31:13;;;;;;;23.85;11.43;;;23.20;33.80;;;;;;6111312;28;83340;-61
2023/02/11 13:34:14;;;;;;;20.77;11.02;;;23.20;33.50;;;;;;6123803;28;86599;-62
2023/02/11 13:37:14;;;;;;;20.15;10.77;;;23.20;34.10;;;;;;6125392;28;83321;-61
2023/02/11 13:40:15;;;;;;;16.65;10.30;;;23.20;34.50;;;;;;6122635;28;83088;-62
2023/02/11 13:43:15;;;;;;;16.60;10.13;;;23.20;34.60;;;;;;6129340;28;85922;-60
2023/02/11 13:46:16;;;;;;;21.75;10.30;;;23.10;34.50;;;;;;6116511;28;83002;-61
2023/02/11 13:49:16;;;;;;;21.27;10.27;;;23.10;34.70;;;;;;6122137;28;83358;-61
2023/02/11 13:52:17;;;;;;;17.48;10.02;;;23.10;34.70;;;;;;6123815;28;83346;-64
2023/02/11 13:55:18;;;;;;;18.65;10.40;;;23.10;35.00;;;;;;6117899;28;83287;-64
2023/02/11 13:58:19;;;;;;;15.43;8.88;;;23.10;35.20;;;;;;6110904;28;86254;-71
2023/02/11 14:01:19;;;;;;;14.07;9.00;;;23.10;35.00;;;;;;6095922;28;83171;-64
2023/02/11 14:10:58;;;;;;;13.15;8.40;;;23.00;35.40;;;;;;6113139;28;80907;-64
2023/02/11 14:13:59;;;;;;;15.82;9.73;;;23.10;35.50;;;;;;6115601;28;80233;-65
2023/02/11 14:17:03;;;;;;;15.10;9.40;;;23.10;35.30;;;;;;6112061;28;80918;-63
2023/02/11 14:20:03;;;;;;;15.65;8.95;;;23.00;35.40;;;;;;6113025;28;80523;-64
2023/02/11 14:23:04;;;;;;;16.25;9.38;;;23.00;35.10;;;;;;6118061;28;80417;-60
2023/02/11 14:26:05;;;;;;;14.80;9.52;;;23.00;35.10;;;;;;6123324;28;81577;-66
2023/02/11 14:29:05;;;;;;;16.75;10.32;;;23.00;35.00;;;;;;6128286;28;85454;-63
2023/02/11 14:32:06;;;;;;;14.38;9.23;;;23.00;35.00;;;;;;6103515;28;83200;-63
2023/02/11 14:35:06;;;;;;;13.07;8.48;;;22.90;34.90;;;;;;6115182;28;83507;-63
2023/02/11 14:38:07;;;;;;;16.40;9.75;;;23.00;35.20;;;;;;6118260;28;81779;-61
2023/02/11 14:41:07;;;;;;;13.88;8.88;;;23.00;35.30;;;;;;6113208;28;80874;-62
2023/02/11 14:44:08;;;;;;;11.43;7.80;;;23.00;35.40;;;;;;6116823;28;81008;-62
2023/02/11 14:47:08;;;;;;;14.80;8.43;;;23.00;35.50;;;;;;6093094;28;83168;-64
2023/02/11 14:50:09;;;;;;;15.82;9.18;;;23.00;35.60;;;;;;6113415;28;83645;-55
2023/02/11 14:53:09;;;;;;;16.13;8.82;;;23.00;35.80;;;;;;6127821;28;80958;-55
2023/02/11 14:56:10;;;;;;;14.77;9.35;;;23.00;35.70;;;;;;6128125;28;80834;-62
2023/02/11 14:59:10;;;;;;;14.25;8.05;;;23.00;35.90;;;;;;6120324;28;80845;-48
2023/02/11 15:02:11;;;;;;;14.43;8.10;;;23.00;36.00;;;;;;6116589;28;81654;-54
2023/02/11 15:05:12;;;;;;;14.73;8.48;;;23.00;36.40;;;;;;6095845;28;83001;-55
2023/02/11 15:08:12;;;;;;;22.00;9.35;;;23.00;37.50;;;;;;6095419;28;82206;-50
2023/02/11 15:11:13;;;;;;;13.63;8.60;;;23.00;37.10;;;;;;6094518;28;80405;-50
2023/02/11 15:14:13;;;;;;;13.77;8.38;;;23.00;37.80;;;;;;6112543;28;82520;-49
2023/02/11 15:17:14;;;;;;;14.10;8.48;;;23.10;37.50;;;;;;6096119;28;82244;-52
2023/02/11 15:20:15;;;;;;;20.52;8.48;;;23.10;38.00;;;;;;6103580;28;81103;-50
2023/02/11 15:23:15;;;;;;;17.90;8.38;;;23.10;38.10;;;;;;6108814;28;84618;-50
2023/02/11 15:26:16;;;;;;;12.25;7.65;;;23.20;38.60;;;;;;6110523;28;81043;-49
2023/02/11 15:29:16;;;;;;;14.73;7.97;;;23.20;38.60;;;;;;6099372;28;83359;-56
2023/02/11 15:32:17;;;;;;;12.52;6.55;;;23.20;38.80;;;;;;6108181;28;85264;-48
2023/02/11 15:35:17;;;;;;;12.63;7.68;;;23.30;38.80;;;;;;6108236;28;83502;-52
2023/02/11 15:38:18;;;;;;;11.13;7.95;;;23.30;38.80;;;;;;6107174;28;81515;-50